Αρχική σελίδα
METAR-TAF:

METAR-TAF

Αεροδρόμια :

Ρεσίφε, Περναμπούκο, Βραζιλία

γεωγραφικό πλάτος: 08-08S, γεωγραφικό μήκος: 034-55W, υψόμετρο: 19 μ

Παρών καιρός

Η αναφορά έγινε 19 λεπτά πριν, στις 05:00 UTC
Άνεμος 5 kt από ΝA
Θερμοκρασία 25°C
Υγρασία 74%
Πίεση 1013 hPa
Ορατότητα 10 χλμ και άνω
Διάσπαρτα νέφη σε ύψος 2300 πόδια

METAR: SBRF 230500Z 13005KT 9999 SCT023 25/20 Q1013

Χρόνος: 02:19 (05:19 UTC)

Πρόγνωση Καιρού

Η αναφορά έγινε 7 ώρες και 19 λεπτά πριν, στις 22:00 UTC
Η πρόγνωση ισχύει από τις 23 στις 00 UTC έως τις 23 στις 24 UTC
Άνεμος 8 kt από ΝA
Ορατότητα: 9000 μ
Διάσπαρτα νέφη σε ύψος 2000 πόδια
Καθιστάμενος
από 23 στις 12 UTC έως τις 23 στις 14 UTC
Άνεμος 10 kt από Α/NA

TAF: SBRF 222200Z 2300/2324 14008KT 9000 SCT020 TN24/2308Z TX28/2314Z BECMG 2312/2314 12010KT RMK PEU

Μετεωρολογικές αναφορές και προγνώσεις για περισσότερα από 4000 αεροδρόμια (δελτία METAR και TAF).

Οι διαθέσιμοι σταθμοί απεικονίζονται στο χάρτη με κίτρινες και κόκκινες κουκκίδες.

Μετακινήστε το ποντίκι πάνω από τις κουκκίδες για να δείτε το όνομα του σταθμού.

Στη συνέχεια, κάντε κλικ για να δείτε τις μετεωρολογικές αναφορές και τις προγνώσεις καιρού.

Για να αλλάξετε το χάρτη: κάντε κλικ στα πράσινα κουμπιά με τον μαύρο σταυρό για να ζουμάρετε, στο πράσινο κουμπί με την παύλα για να αφαιρέσετε το ζουμ ή στα πράσινα βέλη για να αντιπαραβάλλετε χάρτες.


METAR-TAF: